Happy Valentine's Day! 

Flight Track Log - Related Links

Times and Time Zones

All times are in EDT time to prevent confusion due to time zone crossing. See the UAL33 flight status page for this flight to view local times or setup timezone preferences in your user account.


Time Position Orientation Groundspeed Altitude Reporting Facility
EDT Latitude Longitude Course Direction KTS MPH feet Rate Location/Type
Sun 04:59:44 AM 35.7450 140.3900 148° Southeast 158 182 1,300  Level FlightAware ADS-B
Sun 05:00:04 AM 35.7320 140.3990 151° Southeast 160 184 2,100 2,000 Climbing FlightAware ADS-B
Sun 05:00:20 AM 35.7210 140.4070 149° Southeast 170 196 2,500 1,667 Climbing FlightAware ADS-B
Sun 05:00:40 AM 35.7080 140.4160 151° Southeast 174 200 3,100 1,800 Climbing FlightAware ADS-B
Sun 05:01:00 AM 35.6940 140.4260 150° Southeast 177 204 3,700 1,227 Climbing FlightAware ADS-B
Sun 05:01:24 AM 35.6750 140.4400 149° Southeast 210 242 4,000 837 Climbing FlightAware ADS-B
Sun 05:01:43 AM 35.6580 140.4520 150° Southeast 238 274 4,300 1,161 Climbing FlightAware ADS-B
Sun 05:01:55 AM 35.6460 140.4600 152° Southeast 247 284 4,600 1,400 Climbing FlightAware ADS-B
Sun 05:02:13 AM 35.6270 140.4740 149° Southeast 268 308 5,000 2,133 Climbing FlightAware ADS-B
Sun 05:02:40 AM 35.5990 140.4950 149° Southeast 274 315 6,200 2,553 Climbing FlightAware ADS-B
Sun 05:03:00 AM 35.5760 140.5110 150° Southeast 280 322 7,000 2,550 Climbing FlightAware ADS-B
Sun 05:03:20 AM 35.5530 140.5280 149° Southeast 283 326 7,900 2,400 Climbing FlightAware ADS-B
Sun 05:03:40 AM 35.5300 140.5440 150° Southeast 289 333 8,600 1,636 Climbing FlightAware ADS-B
Sun 05:04:04 AM 35.5030 140.5640 149° Southeast 294 338 9,100 682 Climbing FlightAware ADS-B
Sun 05:04:24 AM 35.4800 140.5850 143° Southeast 300 345 9,100 214 Level FlightAware ADS-B
Sun 05:04:32 AM 35.4730 140.5960 128° Southeast 301 346 9,200 375 Climbing FlightAware ADS-B
Sun 05:04:40 AM 35.4680 140.6080 117° Southeast 302 348 9,200 -214 Level FlightAware ADS-B
Sun 05:05:00 AM 35.4600 140.6410 107° East 307 353 9,100 -115 Descending FlightAware ADS-B
Sun 05:05:32 AM 35.4620 140.6960 87° East 307 353 9,100  Level FlightAware ADS-B
Sun 05:05:57 AM 35.4660 140.7370 83° East 305 351 9,100 279 Level FlightAware ADS-B
Sun 05:06:15 AM 35.4680 140.7700 86° East 308 354 9,300 1,161 Climbing FlightAware ADS-B
Sun 05:06:28 AM 35.4700 140.7910 83° East 309 356 9,700 1,684 Climbing FlightAware ADS-B
Sun 05:07:12 AM 35.4760 140.8730 85° East 340 391 10,900 1,459 Climbing FlightAware ADS-B
Sun 05:07:42 AM 35.4800 140.9310 85° East 368 423 11,500 1,364 Climbing FlightAware ADS-B
Sun 05:08:18 AM 35.4850 141.0080 85° East 394 453 12,400 1,895 Climbing FlightAware ADS-B
Sun 05:08:58 AM 35.4880 141.0950 88° East 405 466 13,900 2,100 Climbing FlightAware ADS-B
Sun 05:09:38 AM 35.4680 141.1780 106° East 413 475 15,200 2,160 Climbing FlightAware ADS-B
Sun 05:10:13 AM 35.4410 141.2660 111° Southeast 423 487 16,600 2,200 Climbing FlightAware ADS-B
Sun 05:10:38 AM 35.4250 141.3170 111° Southeast 427 491 17,400 1,938 Climbing FlightAware ADS-B
Sun 05:11:18 AM 35.3960 141.4130 110° East 433 498 18,700 1,500 Climbing FlightAware ADS-B
Sun 05:11:58 AM 35.3690 141.5020 110° East 456 525 19,400 1,520 Climbing FlightAware ADS-B
Sun 05:12:33 AM 35.3400 141.5940 111° Southeast 461 531 20,600 1,629 Climbing FlightAware ADS-B
Sun 05:13:08 AM 35.3150 141.6760 110° East 468 539 21,300 1,286 Climbing FlightAware ADS-B
Sun 05:13:43 AM 35.2860 141.7690 111° Southeast 479 551 22,100 1,371 Climbing FlightAware ADS-B
Sun 05:14:18 AM 35.2580 141.8590 111° Southeast 486 559 22,900 1,320 Climbing FlightAware ADS-B
Sun 05:14:33 AM 35.2500 141.8970 104° East 489 563 23,200 1,333 Climbing FlightAware ADS-B
Sun 05:15:03 AM 35.2540 141.9810 87° East 492 566 23,900 1,280 Climbing FlightAware ADS-B
Sun 05:15:48 AM 35.2870 142.1020 71° East 500 575 24,800 1,275 Climbing FlightAware ADS-B
Sun 05:16:23 AM 35.3120 142.1960 72° East 508 585 25,600 1,286 Climbing FlightAware ADS-B
Sun 05:16:58 AM 35.3370 142.2880 72° East 513 590 26,300 1,200 Climbing FlightAware ADS-B
Sun 05:17:33 AM 35.3640 142.3890 72° East 517 595 27,000 1,129 Climbing FlightAware ADS-B
Sun 05:18:23 AM 35.4010 142.5280 72° East 523 602 27,900 1,140 Climbing FlightAware ADS-B
Sun 05:19:13 AM 35.4390 142.6690 72° East 525 604 28,900 1,341 Climbing FlightAware ADS-B
Sun 05:19:48 AM 35.4660 142.7710 72° East 522 601 29,800 1,440 Climbing FlightAware ADS-B
Sun 05:20:28 AM 35.4950 142.8810 72° East 519 597 30,700 1,231 Climbing FlightAware ADS-B
Sun 05:21:06 AM 35.5230 142.9880 72° East 519 597 31,400 867 Climbing FlightAware ADS-B
Sun 05:21:51 AM 35.5520 143.1020 73° East 512 589 31,900 366 Climbing FlightAware ADS-B
Sun 05:22:28 AM 35.5740 143.1890 73° East 512 589 31,900  Level FlightAware ADS-B
Sun 05:23:04 AM 35.5950 143.2750 73° East 512 589 31,900 2,783 Level FlightAware ADS-B
Sun 05:23:37 AM 35.6270 143.3890 71° East 493 567 35,100 3,563 Climbing FlightAware ADS-B
Sun 05:24:08 AM 35.6510 143.4810 72° East 492 566 35,700 1,091 Climbing FlightAware ADS-B
Sun 05:24:43 AM 35.6730 143.5690 73° East 488 562 36,300 486 Climbing FlightAware ADS-B
Sun 05:25:22 AM 35.6960 143.6560 72° East 488 562 36,300 506 Level FlightAware ADS-B
Sun 05:26:06 AM 35.7270 143.7780 73° East 485 558 37,000 477 Climbing FlightAware ADS-B
Sun 05:26:50 AM 35.7570 143.8950 72° East 484 557 37,000  Level FlightAware ADS-B
Sun 05:27:23 AM 35.7820 143.9950 73° East 485 558 37,000  Level FlightAware ADS-B
Sun 05:28:03 AM 35.8070 144.0970 73° East 484 557 37,000  Level FlightAware ADS-B
Sun 05:28:43 AM 35.8310 144.1860 72° East 484 557 37,000  Level FlightAware ADS-B
Sun 05:29:35 AM 35.8640 144.3230 73° East 482 555 37,000  Level FlightAware ADS-B
Sun 05:30:08 AM 35.8900 144.4280 73° East 481 554 37,000  Level FlightAware ADS-B
Sun 05:30:47 AM 35.9100 144.5160 74° East 481 554 37,000  Level FlightAware ADS-B
Sun 05:31:35 AM 35.9350 144.6230 74° East 481 554 37,000  Level FlightAware ADS-B
Sun 05:32:12 AM 35.9550 144.7060 73° East 481 554 37,000  Level FlightAware ADS-B
Sun 05:32:43 AM 35.9910 144.8370 71° East 483 556 37,000  Level FlightAware ADS-B
Sun 05:33:24 AM 36.0160 144.9430 74° East 482 555 37,000  Level FlightAware ADS-B
Sun 05:34:08 AM 36.0390 145.0390 73° East 482 555 37,000  Level FlightAware ADS-B
Sun 05:34:45 AM 36.0580 145.1220 74° East 482 555 37,000  Level FlightAware ADS-B
Sun 05:35:21 AM 36.0770 145.2030 74° East 482 555 37,000  Level FlightAware ADS-B
Sun 05:35:58 AM 36.0960 145.2870 74° East 482 555 37,000  Level FlightAware ADS-B
Sun 05:36:34 AM 36.1150 145.3680 74° East 482 555 37,000  Level FlightAware ADS-B
Sun 05:37:10 AM 36.1340 145.4490 74° East 482 555 37,000  Level FlightAware ADS-B
Sun 05:37:46 AM 36.1530 145.5310 74° East 482 555 37,000  Level FlightAware ADS-B
Sun 05:38:21 AM 36.1980 145.7340 75° East 486 559 37,000  Level FlightAware ADS-B
Sun 05:38:55 AM 36.2150 145.8160 76° East 486 559 37,000  Level FlightAware ADS-B
Sun 05:39:31 AM 36.2310 145.8990 77° East 486 559 37,000  Level FlightAware ADS-B
Sun 05:40:07 AM 36.2480 145.9820 76° East 486 559 37,000  Level FlightAware ADS-B
Sun 05:40:43 AM 36.2650 146.0640 76° East 486 559 37,000  Level FlightAware ADS-B
Sun 05:41:20 AM 36.2820 146.1490 76° East 486 559 37,000  Level FlightAware ADS-B
Sun 05:41:54 AM 36.2970 146.2280 77° East 486 559 37,000  Level FlightAware ADS-B
Sun 05:42:30 AM 36.3140 146.3110 76° East 486 559 37,000  Level FlightAware ADS-B
Sun 05:43:06 AM 36.3310 146.3930 76° East 486 559 37,000  Level FlightAware ADS-B
Sun 05:43:43 AM 36.3480 146.4790 76° East 486 559 37,000  Level FlightAware ADS-B
Sun 05:44:19 AM 36.3640 146.5620 77° East 486 559 37,000  Level FlightAware ADS-B
Sun 05:44:55 AM 36.3810 146.6440 76° East 486 559 37,000  Level FlightAware ADS-B
Sun 05:45:31 AM 36.3980 146.7270 76° East 486 559 37,000  Level FlightAware ADS-B
Sun 05:46:07 AM 36.4140 146.8100 77° East 486 559 37,000  Level FlightAware ADS-B
Sun 05:46:44 AM 36.4310 146.8960 76° East 486 559 37,000  Level FlightAware ADS-B
Sun 05:47:20 AM 36.4480 146.9790 76° East 486 559 37,000  Level FlightAware ADS-B
Sun 05:47:56 AM 36.4650 147.0620 76° East 486 559 37,000 18 Level FlightAware ADS-B
Sun 05:50:00 AM 36.6114 147.3720 59° Northeast  Level Estimated
Sun 05:51:00 AM 36.6820 147.5224 60° Northeast  Level Estimated
Sun 05:52:00 AM 36.7523 147.6730 60° Northeast  Level Estimated
Sun 05:53:00 AM 36.8225 147.8240 60° Northeast  Level Estimated
Sun 05:54:00 AM 36.8925 147.9752 60° Northeast  Level Estimated
Sun 05:55:00 AM 36.9623 148.1267 60° Northeast  Level Estimated
Sun 05:56:00 AM 37.0319 148.2785 60° Northeast  Level Estimated
Sun 05:57:00 AM 37.1013 148.4306 60° Northeast  Level Estimated
Sun 05:58:00 AM 37.1705 148.5829 60° Northeast  Level Estimated
Sun 05:59:00 AM 37.2395 148.7355 60° Northeast  Level Estimated
Sun 06:00:00 AM 37.3083 148.8884 60° Northeast  Level Estimated
Sun 06:01:00 AM 37.3769 149.0416 61° Northeast  Level Estimated
Sun 06:02:00 AM 37.4453 149.1951 61° Northeast  Level Estimated
Sun 06:03:00 AM 37.5136 149.3488 61° Northeast  Level Estimated
Sun 06:04:00 AM 37.5816 149.5028 61° Northeast  Level Estimated
Sun 06:05:00 AM 37.6494 149.6571 61° Northeast  Level Estimated
Sun 06:06:00 AM 37.7170 149.8117 61° Northeast  Level Estimated
Sun 06:07:00 AM 37.7844 149.9666 61° Northeast  Level Estimated
Sun 06:08:00 AM 37.8517 150.1217 61° Northeast  Level Estimated
Sun 06:09:00 AM 37.9187 150.2772 61° Northeast  Level Estimated
Sun 06:10:00 AM 37.9855 150.4329 61° Northeast  Level Estimated
Sun 06:11:00 AM 38.0521 150.5889 61° Northeast  Level Estimated
Sun 06:12:00 AM 38.1185 150.7451 62° Northeast  Level Estimated
Sun 06:13:00 AM 38.1847 150.9017 62° Northeast  Level Estimated
Sun 06:14:00 AM 38.2506 151.0586 62° Northeast  Level Estimated
Sun 06:15:00 AM 38.3164 151.2157 62° Northeast  Level Estimated
Sun 06:16:00 AM 38.3820 151.3731 62° Northeast  Level Estimated
Sun 06:17:00 AM 38.4473 151.5308 62° Northeast  Level Estimated
Sun 06:18:00 AM 38.5125 151.6888 62° Northeast  Level Estimated
Sun 06:19:00 AM 38.5774 151.8471 62° Northeast  Level Estimated
Sun 06:20:00 AM 38.6421 152.0056 62° Northeast  Level Estimated
Sun 06:21:00 AM 38.7066 152.1645 62° Northeast  Level Estimated
Sun 06:22:00 AM 38.7709 152.3236 63° Northeast  Level Estimated
Sun 06:23:00 AM 38.8350 152.4830 63° Northeast  Level Estimated
Sun 06:24:00 AM 38.8988 152.6427 63° Northeast  Level Estimated
Sun 06:25:00 AM 38.9624 152.8027 63° Northeast  Level Estimated
Sun 06:26:00 AM 39.0258 152.9630 63° Northeast  Level Estimated
Sun 06:27:00 AM 39.0890 153.1236 63° Northeast  Level Estimated
Sun 06:28:00 AM 39.1520 153.2844 63° Northeast  Level Estimated
Sun 06:29:00 AM 39.2148 153.4456 63° Northeast  Level Estimated
Sun 06:30:00 AM 39.2773 153.6070 63° Northeast  Level Estimated
Sun 06:31:00 AM 39.3396 153.7687 63° Northeast  Level Estimated
Sun 06:32:00 AM 39.4131 153.9605 64° Northeast  Level Estimated
Sun 06:33:00 AM 39.4862 154.1527 64° Northeast  Level Estimated
Sun 06:34:00 AM 39.5590 154.3453 64° Northeast  Level Estimated
Sun 06:35:00 AM 39.6315 154.5383 64° Northeast  Level Estimated
Sun 06:36:00 AM 39.7037 154.7318 64° Northeast  Level Estimated
Sun 06:37:00 AM 39.7756 154.9256 64° Northeast  Level Estimated
Sun 06:38:00 AM 39.8472 155.1198 64° Northeast  Level Estimated
Sun 06:39:00 AM 39.9184 155.3145 64° Northeast  Level Estimated
Sun 06:40:00 AM 39.9893 155.5095 65° Northeast  Level Estimated
Sun 06:41:00 AM 40.0598 155.7049 65° Northeast  Level Estimated
Sun 06:42:00 AM 40.1301 155.9008 65° Northeast  Level Estimated
Sun 06:43:00 AM 40.2000 156.0970 65° Northeast  Level Estimated
Sun 06:44:00 AM 40.2696 156.2937 65° Northeast  Level Estimated
Sun 06:45:00 AM 40.3388 156.4907 65° Northeast  Level Estimated
Sun 06:46:00 AM 40.4077 156.6882 65° Northeast  Level Estimated
Sun 06:47:00 AM 40.4763 156.8860 65° Northeast  Level Estimated
Sun 06:48:00 AM 40.5445 157.0843 66° East  Level Estimated
Sun 06:49:00 AM 40.6124 157.2830 66° East  Level Estimated
Sun 06:50:00 AM 40.6800 157.4820 66° East  Level Estimated
Sun 06:51:00 AM 40.7472 157.6815 66° East  Level Estimated
Sun 06:52:00 AM 40.8140 157.8814 66° East  Level Estimated
Sun 06:53:00 AM 40.8806 158.0817 66° East  Level Estimated
Sun 06:54:00 AM 40.9467 158.2824 66° East  Level Estimated
Sun 06:55:00 AM 41.0126 158.4834 66° East  Level Estimated
Sun 06:56:00 AM 41.0780 158.6849 67° East  Level Estimated
Sun 06:57:00 AM 41.1432 158.8868 67° East  Level Estimated
Sun 06:58:00 AM 41.2079 159.0891 67° East  Level Estimated
Sun 06:59:00 AM 41.2723 159.2918 67° East  Level Estimated
Sun 07:00:00 AM 41.3364 159.4949 67° East  Level Estimated
Sun 07:01:00 AM 41.3900 159.6658 67° East  Level Estimated
Sun 07:02:00 AM 41.4433 159.8371 67° East  Level Estimated
Sun 07:03:00 AM 41.4963 160.0086 68° East  Level Estimated
Sun 07:04:00 AM 41.5491 160.1804 68° East  Level Estimated
Sun 07:05:00 AM 41.6016 160.3525 68° East  Level Estimated
Sun 07:06:00 AM 41.6539 160.5249 68° East  Level Estimated
Sun 07:07:00 AM 41.7059 160.6975 68° East  Level Estimated
Sun 07:08:00 AM 41.7577 160.8705 68° East  Level Estimated
Sun 07:09:00 AM 41.8092 161.0437 68° East  Level Estimated
Sun 07:10:00 AM 41.8604 161.2172 68° East  Level Estimated
Sun 07:11:00 AM 41.9114 161.3909 68° East  Level Estimated
Sun 07:12:00 AM 41.9621 161.5650 69° East  Level Estimated
Sun 07:13:00 AM 42.0126 161.7393 69° East  Level Estimated
Sun 07:14:00 AM 42.0628 161.9139 69° East  Level Estimated
Sun 07:15:00 AM 42.1127 162.0888 69° East  Level Estimated
Sun 07:16:00 AM 42.1624 162.2639 69° East  Level Estimated
Sun 07:17:00 AM 42.2118 162.4393 69° East  Level Estimated
Sun 07:18:00 AM 42.2609 162.6150 69° East  Level Estimated
Sun 07:19:00 AM 42.3097 162.7910 69° East  Level Estimated
Sun 07:20:00 AM 42.3583 162.9672 69° East  Level Estimated
Sun 07:21:00 AM 42.4067 163.1438 70° East  Level Estimated
Sun 07:22:00 AM 42.4547 163.3205 70° East  Level Estimated
Sun 07:23:00 AM 42.5025 163.4976 70° East  Level Estimated
Sun 07:24:00 AM 42.5500 163.6749 70° East  Level Estimated
Sun 07:25:00 AM 42.5972 163.8525 70° East  Level Estimated
Sun 07:26:00 AM 42.6442 164.0303 70° East  Level Estimated
Sun 07:27:00 AM 42.6908 164.2085 70° East  Level Estimated
Sun 07:28:00 AM 42.7372 164.3869 70° East  Level Estimated
Sun 07:29:00 AM 42.7834 164.5655 71° East  Level Estimated
Sun 07:30:00 AM 42.8292 164.7445 71° East  Level Estimated
Sun 07:31:00 AM 42.8748 164.9237 71° East  Level Estimated
Sun 07:32:00 AM 42.9201 165.1031 71° East  Level Estimated
Sun 07:33:00 AM 42.9651 165.2828 71° East  Level Estimated
Sun 07:34:00 AM 43.0098 165.4628 71° East  Level Estimated
Sun 07:35:00 AM 43.0542 165.6431 71° East  Level Estimated
Sun 07:36:00 AM 43.0984 165.8236 71° East  Level Estimated
Sun 07:37:00 AM 43.1423 166.0043 72° East  Level Estimated
Sun 07:38:00 AM 43.1858 166.1854 72° East  Level Estimated
Sun 07:38:04 AM 40.0500 164.6500 75° East 530 610 39,000  Level Oakland Oceanic (ODAPS)
Sun 07:39:00 AM 43.2291 166.3666 72° East  Level Estimated
Sun 07:40:00 AM 43.2722 166.5482 72° East  Level Estimated
Sun 07:40:27 AM 40.0500 164.6500 75° East 530 610 39,000  Level Oakland Oceanic (ODAPS)
Sun 07:41:00 AM 43.3149 166.7300 72° East  Level Estimated
Sun 07:42:00 AM 43.3573 166.9120 72° East  Level Estimated
Sun 07:43:00 AM 43.3995 167.0943 72° East  Level Estimated
Sun 07:44:00 AM 40.4730 166.8453 77° East 530 610 39,000  Level FlightAware Transoceanic
Sun 07:45:00 AM 40.5064 167.0294 77° East 530 610 39,000  Level FlightAware Transoceanic
Sun 07:46:00 AM 40.5394 167.2138 77° East 530 610 39,000  Level FlightAware Transoceanic
Sun 07:47:00 AM 40.5722 167.3983 77° East 530 610 39,000  Level FlightAware Transoceanic
Sun 07:48:00 AM 40.6047 167.5830 77° East 530 610 39,000  Level FlightAware Transoceanic
Sun 07:48:32 AM 40.5333 167.2333 77° East 525 604 39,000  Level Oakland Oceanic (ODAPS)
Sun 07:49:00 AM 40.6369 167.7679 77° East 530 610 39,000  Level FlightAware Transoceanic
Sun 07:50:00 AM 40.6688 167.9530 77° East 530 610 39,000  Level FlightAware Transoceanic
Sun 07:51:00 AM 40.7004 168.1382 77° East 530 610 39,000  Level FlightAware Transoceanic
Sun 07:52:00 AM 40.7317 168.3236 78° East 530 610 39,000  Level FlightAware Transoceanic
Sun 07:53:00 AM 40.7627 168.5092 78° East 530 610 39,000  Level FlightAware Transoceanic
Sun 07:54:00 AM 40.7905 168.7041 78° East 525 604 39,000  Level FlightAware Transoceanic
Sun 07:55:00 AM 40.8213 168.8887 78° East 525 604 39,000  Level FlightAware Transoceanic
Sun 07:56:00 AM 40.8518 169.0735 78° East 525 604 39,000  Level FlightAware Transoceanic
Sun 07:57:00 AM 40.8820 169.2585 78° East 525 604 39,000  Level FlightAware Transoceanic
Sun 07:58:00 AM 40.9120 169.4436 78° East 525 604 39,000  Level FlightAware Transoceanic
Sun 07:59:00 AM 40.9416 169.6289 78° East 525 604 39,000  Level FlightAware Transoceanic
Sun 08:00:00 AM 40.9710 169.8144 78° East 525 604 39,000  Level FlightAware Transoceanic
Sun 08:01:00 AM 41.0000 170.0000 72° East 525 604 39,000  Level FlightAware Transoceanic
Sun 08:01:06 AM 40.9667 169.8000 77° East 514 592 39,000  Level Oakland Oceanic (ODAPS)
Sun 08:02:00 AM 41.0456 170.1826 72° East 525 604 39,000  Level FlightAware Transoceanic
Sun 08:02:23 AM 41.0500 170.1833 72° East 523 602 39,000  Level Oakland Oceanic (ODAPS)
Sun 08:03:00 AM 41.0909 170.3654 72° East 525 604 39,000  Level FlightAware Transoceanic
Sun 08:04:00 AM 41.1359 170.5485 72° East 525 604 39,000  Level FlightAware Transoceanic
Sun 08:05:00 AM 41.1807 170.7319 72° East 525 604 39,000  Level FlightAware Transoceanic
Sun 08:06:00 AM 41.2251 170.9155 72° East 525 604 39,000  Level FlightAware Transoceanic
Sun 08:07:00 AM 41.2693 171.0993 72° East 514 592 39,000  Level FlightAware Transoceanic
Sun 08:08:00 AM 41.3170 171.2841 72° East 523 602 39,000  Level FlightAware Transoceanic
Sun 08:09:00 AM 41.3605 171.4684 73° East 523 602 39,000  Level FlightAware Transoceanic
Sun 08:10:00 AM 41.4037 171.6530 73° East 523 602 39,000  Level FlightAware Transoceanic
Sun 08:11:00 AM 41.4466 171.8378 73° East 523 602 39,000  Level FlightAware Transoceanic
Sun 08:12:00 AM 41.4892 172.0229 73° East 523 602 39,000  Level FlightAware Transoceanic
Sun 08:13:00 AM 41.5314 172.2082 73° East 523 602 39,000  Level FlightAware Transoceanic
Sun 08:14:00 AM 41.5734 172.3938 73° East 523 602 39,000  Level FlightAware Transoceanic
Sun 08:14:08 AM 41.5500 172.3333 73° East 520 598 39,000  Level Oakland Oceanic (ODAPS)
Sun 08:15:00 AM 41.6151 172.5795 73° East 523 602 39,000  Level FlightAware Transoceanic
Sun 08:16:00 AM 41.6565 172.7656 73° East 523 602 39,000  Level FlightAware Transoceanic
Sun 08:17:00 AM 41.6976 172.9518 74° East 523 602 39,000  Level FlightAware Transoceanic
Sun 08:18:00 AM 41.7384 173.1384 74° East 523 602 39,000  Level FlightAware Transoceanic
Sun 08:19:00 AM 41.7789 173.3251 74° East 523 602 39,000  Level FlightAware Transoceanic
Sun 08:20:00 AM 41.7997 173.4602 74° East 520 598 39,000  Level FlightAware Transoceanic
Sun 08:21:00 AM 41.8402 173.6488 74° East 520 598 39,000  Level FlightAware Transoceanic
Sun 08:22:00 AM 41.8805 173.8377 74° East 520 598 39,000  Level FlightAware Transoceanic
Sun 08:23:00 AM 41.9204 174.0268 74° East 520 598 39,000  Level FlightAware Transoceanic
Sun 08:24:00 AM 41.9600 174.2162 74° East 520 598 39,000  Level FlightAware Transoceanic
Sun 08:25:00 AM 41.9993 174.4058 74° East 520 598 39,000  Level FlightAware Transoceanic
Sun 08:26:00 AM 42.0383 174.5956 75° East 520 598 39,000  Level FlightAware Transoceanic
Sun 08:27:00 AM 42.0770 174.7857 75° East 520 598 39,000  Level FlightAware Transoceanic
Sun 08:27:59 AM 42.1167 174.9333 75° East 529 609 39,000  Level Oakland Oceanic (ODAPS)
Sun 08:28:00 AM 42.1153 174.9760 75° East 520 598 39,000  Level FlightAware Transoceanic
Sun 08:29:00 AM 42.1534 175.1665 75° East 520 598 39,000  Level FlightAware Transoceanic
Sun 08:30:00 AM 42.1911 175.3572 75° East 520 598 39,000  Level FlightAware Transoceanic
Sun 08:31:00 AM 42.2285 175.5482 75° East 520 598 39,000  Level FlightAware Transoceanic
Sun 08:32:00 AM 42.2656 175.7394 75° East 520 598 39,000  Level FlightAware Transoceanic
Sun 08:33:00 AM 42.3024 175.9308 76° East 520 598 39,000  Level FlightAware Transoceanic
Sun 08:34:00 AM 42.3402 176.0896 76° East 529 609 39,000  Level FlightAware Transoceanic
Sun 08:35:00 AM 42.3764 176.2831 76° East 529 609 39,000  Level FlightAware Transoceanic
Sun 08:36:00 AM 42.4122 176.4768 76° East 529 609 39,000  Level FlightAware Transoceanic
Sun 08:37:00 AM 42.4476 176.6708 76° East 529 609 39,000  Level FlightAware Transoceanic
Sun 08:38:00 AM 42.4828 176.8649 76° East 529 609 39,000  Level FlightAware Transoceanic
Sun 08:39:00 AM 42.5176 177.0593 76° East 529 609 39,000  Level FlightAware Transoceanic
Sun 08:40:00 AM 42.5521 177.2539 77° East 529 609 39,000  Level FlightAware Transoceanic
Sun 08:41:00 AM 42.5862 177.4487 77° East 529 609 39,000  Level FlightAware Transoceanic
Sun 08:41:51 AM 42.6000 177.5667 77° East 514 592 39,000  Level Oakland Oceanic (ODAPS)
Sun 08:42:00 AM 42.6201 177.6438 77° East 529 609 39,000  Level FlightAware Transoceanic
Sun 08:43:00 AM 42.6536 177.8390 77° East 529 609 39,000  Level FlightAware Transoceanic
Sun 08:44:00 AM 42.6867 178.0344 77° East 529 609 39,000  Level FlightAware Transoceanic
Sun 08:45:00 AM 42.7196 178.2301 77° East 529 609 39,000  Level FlightAware Transoceanic
Sun 08:46:00 AM 42.7521 178.4259 77° East 529 609 39,000  Level FlightAware Transoceanic
Sun 08:47:00 AM 42.7842 178.6220 77° East 529 609 39,000  Level FlightAware Transoceanic
Sun 08:48:00 AM 42.8064 178.7794 77° East 514 592 39,000  Level FlightAware Transoceanic
Sun 08:49:00 AM 42.8396 178.9823 78° East 514 592 39,000  Level FlightAware Transoceanic
Sun 08:50:00 AM 42.8724 179.1854 78° East 514 592 39,000  Level FlightAware Transoceanic
Sun 08:51:00 AM 42.9048 179.3887 78° East 514 592 39,000  Level FlightAware Transoceanic
Sun 08:52:00 AM 42.9369 179.5923 78° East 514 592 39,000  Level FlightAware Transoceanic
Sun 08:53:00 AM 42.9686 179.7960 78° East 514 592 39,000  Level FlightAware Transoceanic
Sun 08:54:00 AM 43.0000 -180.0000 87° East 514 592 39,000  Level FlightAware Transoceanic
Sun 08:54:35 AM 43.0000 180.0000 87° East 536 617 39,000  Level Oakland Oceanic (ODAPS)
Sun 08:55:00 AM 43.0087 -179.7964 87° East 514 592 39,000  Level FlightAware Transoceanic
Sun 08:55:43 AM 43.0167 -179.7667 87° East 543 625 39,000  Level Oakland Oceanic (ODAPS)
Sun 08:56:00 AM 43.0171 -179.5927 87° East 514 592 39,000  Level FlightAware Transoceanic
Sun 08:57:00 AM 43.0250 -179.3889 87° East 514 592 39,000  Level FlightAware Transoceanic
Sun 08:58:00 AM 43.0326 -179.1852 87° East 514 592 39,000  Level FlightAware Transoceanic
Sun 08:59:00 AM 43.0399 -178.9813 87° East 514 592 39,000  Level FlightAware Transoceanic
Sun 09:00:00 AM 43.0460 -178.8019 87° East 536 617 39,000  Level FlightAware Transoceanic
Sun 09:01:00 AM 43.0544 -178.7291 88° East 543 625 39,000  Level FlightAware Transoceanic
Sun 09:02:00 AM 43.0608 -178.5214 88° East 543 625 39,000  Level FlightAware Transoceanic
Sun 09:03:00 AM 43.0669 -178.3137 88° East 543 625 39,000  Level FlightAware Transoceanic
Sun 09:04:00 AM 43.0725 -178.1059 88° East 543 625 39,000  Level FlightAware Transoceanic
Sun 09:05:00 AM 43.0778 -177.8981 88° East 543 625 39,000  Level FlightAware Transoceanic
Sun 09:06:00 AM 43.0827 -177.6903 88° East 543 625 39,000  Level FlightAware Transoceanic
Sun 09:07:00 AM 43.0873 -177.4825 88° East 543 625 39,000  Level FlightAware Transoceanic
Sun 09:08:00 AM 43.0914 -177.2746 88° East 543 625 39,000  Level FlightAware Transoceanic
Sun 09:09:00 AM 43.0952 -177.0667 89° East 543 625 39,000  Level FlightAware Transoceanic
Sun 09:09:35 AM 43.1000 -176.9167 89° East 551 634 39,000  Level Oakland Oceanic (ODAPS)
Sun 09:10:00 AM 43.0987 -176.8588 89° East 543 625 39,000  Level FlightAware Transoceanic
Sun 09:11:00 AM 43.1017 -176.6508 89° East 543 625 39,000  Level FlightAware Transoceanic
Sun 09:12:00 AM 43.1043 -176.4428 89° East 543 625 39,000  Level FlightAware Transoceanic
Sun 09:13:00 AM 43.1066 -176.2348 89° East 543 625 39,000  Level FlightAware Transoceanic
Sun 09:14:00 AM 43.1085 -176.0268 89° East 543 625 39,000  Level FlightAware Transoceanic
Sun 09:15:00 AM 43.1127 -175.6952 90° East 551 634 39,000  Level FlightAware Transoceanic
Sun 09:16:00 AM 43.1135 -175.4916 90° East 551 634 39,000  Level FlightAware Transoceanic
Sun 09:17:00 AM 43.1140 -175.2879 90° East 551 634 39,000  Level FlightAware Transoceanic
Sun 09:18:00 AM 43.1141 -175.0843 90° East 551 634 39,000  Level FlightAware Transoceanic
Sun 09:19:00 AM 43.1139 -174.8807 90° East 551 634 39,000  Level FlightAware Transoceanic
Sun 09:20:00 AM 43.1133 -174.6771 90° East 551 634 39,000  Level FlightAware Transoceanic
Sun 09:21:00 AM 43.1123 -174.4734 90° East 551 634 39,000  Level FlightAware Transoceanic
Sun 09:22:00 AM 43.1110 -174.2698 91° East 551 634 39,000  Level FlightAware Transoceanic
Sun 09:23:00 AM 43.1093 -174.0662 91° East 551 634 39,000  Level FlightAware Transoceanic
Sun 09:23:27 AM 43.1000 -173.9833 91° East 566 651 39,000  Level Oakland Oceanic (ODAPS)
Sun 09:24:00 AM 43.1073 -173.8626 91° East 551 634 39,000  Level FlightAware Transoceanic
Sun 09:25:00 AM 43.1049 -173.6591 91° East 551 634 39,000  Level FlightAware Transoceanic
Sun 09:26:00 AM 43.1021 -173.4555 91° East 551 634 39,000  Level FlightAware Transoceanic
Sun 09:27:00 AM 43.0990 -173.2520 91° East 551 634 39,000  Level FlightAware Transoceanic
Sun 09:28:00 AM 43.0955 -173.0485 91° East 551 634 39,000  Level FlightAware Transoceanic
Sun 09:29:00 AM 43.0834 -172.7242 91° East 566 651 39,000  Level FlightAware Transoceanic
Sun 09:30:00 AM 43.0792 -172.5144 92° East 566 651 39,000  Level FlightAware Transoceanic
Sun 09:31:00 AM 43.0747 -172.3046 92° East 566 651 39,000  Level FlightAware Transoceanic
Sun 09:32:00 AM 43.0699 -172.0949 92° East 566 651 39,000  Level FlightAware Transoceanic
Sun 09:33:00 AM 43.0646 -171.8852 92° East 566 651 39,000  Level FlightAware Transoceanic
Sun 09:34:00 AM 43.0589 -171.6756 92° East 566 651 39,000  Level FlightAware Transoceanic
Sun 09:35:00 AM 43.0529 -171.4659 92° East 566 651 39,000  Level FlightAware Transoceanic
Sun 09:36:00 AM 43.0465 -171.2564 92° East 566 651 39,000  Level FlightAware Transoceanic
Sun 09:37:00 AM 43.0397 -171.0468 93° East 566 651 39,000  Level FlightAware Transoceanic
Sun 09:37:20 AM 43.0333 -170.9667 92° East 574 661 39,000  Level Oakland Oceanic (ODAPS)
Sun 09:38:00 AM 43.0325 -170.8374 93° East 566 651 39,000  Level FlightAware Transoceanic
Sun 09:39:00 AM 43.0250 -170.6279 93° East 566 651 39,000  Level FlightAware Transoceanic
Sun 09:40:00 AM 43.0170 -170.4186 93° East 566 651 39,000  Level FlightAware Transoceanic
Sun 09:41:00 AM 43.0087 -170.2093 93° East 566 651 39,000  Level FlightAware Transoceanic
Sun 09:41:58 AM 43.0000 -170.0000 79° East 570 656 39,000  Level Oakland Oceanic (ODAPS)
Sun 09:42:00 AM 43.0000 -170.0000 79° East 566 651 39,000  Level FlightAware Transoceanic
Sun 09:43:00 AM 43.0309 -169.7866 79° East 574 661 39,000  Level FlightAware Transoceanic
Sun 09:44:00 AM 43.0614 -169.5729 79° East 574 661 39,000  Level FlightAware Transoceanic
Sun 09:45:00 AM 43.0915 -169.3591 79° East 574 661 39,000  Level FlightAware Transoceanic
Sun 09:46:00 AM 43.1213 -169.1450 79° East 574 661 39,000  Level FlightAware Transoceanic
Sun 09:47:00 AM 43.1506 -168.9308 79° East 574 661 39,000  Level FlightAware Transoceanic
Sun 09:48:00 AM 43.1795 -168.7163 80° East 570 656 39,000  Level FlightAware Transoceanic
Sun 09:49:00 AM 43.2080 -168.5016 80° East 570 656 39,000  Level FlightAware Transoceanic
Sun 09:50:00 AM 43.2361 -168.2868 80° East 570 656 39,000  Level FlightAware Transoceanic
Sun 09:51:00 AM 43.2638 -168.0717 80° East 570 656 39,000  Level FlightAware Transoceanic
Sun 09:51:12 AM 43.2667 -167.9833 80° East 579 666 39,000  Level Oakland Oceanic (ODAPS)
Sun 09:52:00 AM 43.2911 -167.8564 80° East 570 656 39,000  Level FlightAware Transoceanic
Sun 09:53:00 AM 43.3180 -167.6410 80° East 570 656 39,000  Level FlightAware Transoceanic
Sun 09:54:00 AM 43.3445 -167.4253 80° East 570 656 39,000  Level FlightAware Transoceanic
Sun 09:55:00 AM 43.3706 -167.2095 81° East 570 656 39,000  Level FlightAware Transoceanic
Sun 09:56:00 AM 43.3963 -166.9935 81° East 570 656 39,000  Level FlightAware Transoceanic
Sun 09:57:00 AM 43.4273 -166.6674 81° East 579 666 39,000  Level FlightAware Transoceanic
Sun 09:58:00 AM 43.4526 -166.4474 81° East 579 666 39,000  Level FlightAware Transoceanic
Sun 09:59:00 AM 43.4775 -166.2272 81° East 579 666 39,000  Level FlightAware Transoceanic
Sun 10:00:00 AM 43.5019 -166.0069 81° East 579 666 39,000  Level FlightAware Transoceanic
Sun 10:01:00 AM 43.5259 -165.7863 82° East 579 666 39,000  Level FlightAware Transoceanic
Sun 10:02:00 AM 43.5495 -165.5656 82° East 579 666 39,000  Level FlightAware Transoceanic
Sun 10:03:00 AM 43.5727 -165.3448 82° East 579 666 39,000  Level FlightAware Transoceanic
Sun 10:04:00 AM 43.5955 -165.1237 82° East 579 666 39,000  Level FlightAware Transoceanic
Sun 10:05:00 AM 43.6178 -164.9025 82° East 579 666 39,000  Level FlightAware Transoceanic
Sun 10:05:04 AM 43.6167 -164.9667 82° East 580 667 39,000  Level Oakland Oceanic (ODAPS)
Sun 10:06:00 AM 43.6397 -164.6811 82° East 579 666 39,000  Level FlightAware Transoceanic
Sun 10:07:00 AM 43.6612 -164.4596 82° East 579 666 39,000  Level FlightAware Transoceanic
Sun 10:08:00 AM 43.6822 -164.2379 83° East 579 666 39,000  Level FlightAware Transoceanic
Sun 10:09:00 AM 43.7028 -164.0161 83° East 579 666 39,000  Level FlightAware Transoceanic
Sun 10:10:00 AM 43.7230 -163.7941 83° East 579 666 39,000  Level FlightAware Transoceanic
Sun 10:11:00 AM 43.7425 -163.6187 83° East 580 667 39,000  Level FlightAware Transoceanic
Sun 10:12:00 AM 43.7619 -163.3935 83° East 580 667 39,000  Level FlightAware Transoceanic
Sun 10:13:00 AM 43.7809 -163.1682 83° East 580 667 39,000  Level FlightAware Transoceanic
Sun 10:14:00 AM 43.7995 -162.9427 84° East 580 667 39,000  Level FlightAware Transoceanic
Sun 10:15:00 AM 43.8176 -162.7171 84° East 580 667 39,000  Level FlightAware Transoceanic
Sun 10:16:00 AM 43.8352 -162.4913 84° East 580 667 39,000  Level FlightAware Transoceanic
Sun 10:17:00 AM 43.8524 -162.2654 84° East 580 667 39,000  Level FlightAware Transoceanic
Sun 10:18:00 AM 43.8692 -162.0394 84° East 580 667 39,000  Level FlightAware Transoceanic
Sun 10:18:55 AM 43.8833 -161.9000 84° East 583 671 39,000  Level Oakland Oceanic (ODAPS)
Sun 10:19:00 AM 43.8855 -161.8133 84° East 580 667 39,000  Level FlightAware Transoceanic
Sun 10:20:00 AM 43.9014 -161.5870 85° East 580 667 39,000  Level FlightAware Transoceanic
Sun 10:21:00 AM 43.9168 -161.3606 85° East 580 667 39,000  Level FlightAware Transoceanic
Sun 10:22:00 AM 43.9318 -161.1341 85° East 580 667 39,000  Level FlightAware Transoceanic
Sun 10:23:00 AM 43.9464 -160.9075 85° East 580 667 39,000  Level FlightAware Transoceanic
Sun 10:24:00 AM 43.9604 -160.6808 85° East 580 667 39,000  Level FlightAware Transoceanic
Sun 10:25:00 AM 43.9738 -160.4757 85° East 583 671 39,000  Level FlightAware Transoceanic
Sun 10:26:00 AM 43.9871 -160.2379 86° East 583 671 39,000  Level FlightAware Transoceanic
Sun 10:27:00 AM 44.0000 -160.0000 87° East 583 671 39,000  Level FlightAware Transoceanic
Sun 10:27:25 AM 44.0000 -160.0000 87° East 585 673 39,000  Level Oakland Oceanic (ODAPS)
Sun 10:28:00 AM 44.0093 -159.7831 87° East 583 671 39,000  Level FlightAware Transoceanic
Sun 10:29:00 AM 44.0181 -159.5661 87° East 583 671 39,000  Level FlightAware Transoceanic
Sun 10:30:00 AM 44.0266 -159.3491 87° East 583 671 39,000  Level FlightAware Transoceanic
Sun 10:31:00 AM 44.0346 -159.1320 87° East 583 671 39,000  Level FlightAware Transoceanic
Sun 10:32:00 AM 44.0423 -158.9149 87° East 583 671 39,000  Level FlightAware Transoceanic
Sun 10:32:47 AM 44.0500 -158.7833 87° East 588 677 39,000  Level Oakland Oceanic (ODAPS)
Sun 10:33:00 AM 44.0504 -158.6687 87° East 585 673 39,000  Level FlightAware Transoceanic
Sun 10:34:00 AM 44.0573 -158.4467 88° East 585 673 39,000  Level FlightAware Transoceanic
Sun 10:35:00 AM 44.0638 -158.2245 88° East 585 673 39,000  Level FlightAware Transoceanic
Sun 10:36:00 AM 44.0698 -158.0024 88° East 585 673 39,000  Level FlightAware Transoceanic
Sun 10:37:00 AM 44.0754 -157.7801 88° East 585 673 39,000  Level FlightAware Transoceanic
Sun 10:38:00 AM 44.0806 -157.5579 88° East 585 673 39,000  Level FlightAware Transoceanic
Sun 10:39:00 AM 44.0869 -157.3970 88° East 588 677 39,000  Level FlightAware Transoceanic
Sun 10:40:00 AM 44.0914 -157.1658 89° East 588 677 39,000  Level FlightAware Transoceanic
Sun 10:41:00 AM 44.0955 -156.9346 89° East 588 677 39,000  Level FlightAware Transoceanic
Sun 10:42:00 AM 44.0990 -156.7033 89° East 588 677 39,000  Level FlightAware Transoceanic
Sun 10:43:00 AM 44.1021 -156.4720 89° East 588 677 39,000  Level FlightAware Transoceanic
Sun 10:44:00 AM 44.1048 -156.2407 89° East 588 677 39,000  Level FlightAware Transoceanic
Sun 10:45:00 AM 44.1070 -156.0094 89° East 588 677 39,000  Level FlightAware Transoceanic
Sun 10:46:00 AM 44.1087 -155.7780 89° East 588 677 39,000  Level FlightAware Transoceanic
Sun 10:46:39 AM 44.1000 -155.6333 89° East 584 672 39,000  Level Oakland Oceanic (ODAPS)
Sun 10:47:00 AM 44.1100 -155.5467 90° East 588 677 39,000  Level FlightAware Transoceanic
Sun 10:48:00 AM 44.1107 -155.3153 90° East 588 677 39,000  Level FlightAware Transoceanic
Sun 10:49:00 AM 44.1110 -155.0839 90° East 588 677 39,000  Level FlightAware Transoceanic
Sun 10:50:00 AM 44.1109 -154.8526 90° East 588 677 39,000  Level FlightAware Transoceanic
Sun 10:51:00 AM 44.1103 -154.6212 90° East 588 677 39,000  Level FlightAware Transoceanic
Sun 10:52:00 AM 44.1092 -154.3898 90° East 588 677 39,000  Level FlightAware Transoceanic
Sun 10:53:00 AM 44.1003 -154.1152 91° East 584 672 39,000  Level FlightAware Transoceanic
Sun 10:54:00 AM 44.0987 -153.8983 91° East 584 672 39,000  Level FlightAware Transoceanic
Sun 10:55:00 AM 44.0967 -153.6815 91° East 584 672 39,000  Level FlightAware Transoceanic
Sun 10:56:00 AM 44.0943 -153.4646 91° East 584 672 39,000  Level FlightAware Transoceanic
Sun 10:57:00 AM 44.0915 -153.2478 91° East 584 672 39,000  Level FlightAware Transoceanic
Sun 10:58:00 AM 44.0883 -153.0311 91° East 584 672 39,000  Level FlightAware Transoceanic
Sun 10:59:00 AM 44.0846 -152.8143 91° East 584 672 39,000  Level FlightAware Transoceanic
Sun 11:00:00 AM 44.0806 -152.5975 92° East 584 672 39,000  Level FlightAware Transoceanic
Sun 11:00:31 AM 44.0833 -152.5333 92° East 575 662 39,000  Level Oakland Oceanic (ODAPS)
Sun 11:01:00 AM 44.0761 -152.3808 92° East 584 672 39,000  Level FlightAware Transoceanic
Sun 11:02:00 AM 44.0712 -152.1642 92° East 584 672 39,000  Level FlightAware Transoceanic
Sun 11:03:00 AM 44.0659 -151.9475 92° East 584 672 39,000  Level FlightAware Transoceanic
Sun 11:04:00 AM 44.0602 -151.7310 92° East 584 672 39,000  Level FlightAware Transoceanic
Sun 11:05:00 AM 44.0541 -151.5144 92° East 584 672 39,000  Level FlightAware Transoceanic
Sun 11:06:00 AM 44.0487 -151.2658 93° East 575 662 39,000  Level FlightAware Transoceanic
Sun 11:07:00 AM 44.0415 -151.0547 93° East 575 662 39,000  Level FlightAware Transoceanic
Sun 11:08:00 AM 44.0340 -150.8436 93° East 575 662 39,000  Level FlightAware Transoceanic
Sun 11:09:00 AM 44.0261 -150.6326 93° East 575 662 39,000  Level FlightAware Transoceanic
Sun 11:10:00 AM 44.0178 -150.4217 93° East 575 662 39,000  Level FlightAware Transoceanic
Sun 11:11:00 AM 44.0091 -150.2108 93° East 575 662 39,000  Level FlightAware Transoceanic
Sun 11:12:00 AM 44.0000 -150.0000 94° East 575 662 39,000  Level FlightAware Transoceanic
Sun 11:12:08 AM 44.0000 -150.0000 94° East 557 641 39,000  Level Oakland Oceanic (ODAPS)
Sun 11:13:00 AM 43.9882 -149.7887 95° East 575 662 39,000  Level FlightAware Transoceanic
Sun 11:14:00 AM 43.9759 -149.5775 95° East 575 662 39,000  Level FlightAware Transoceanic
Sun 11:14:25 AM 43.9667 -149.5000 95° East 555 639 39,000  Level Oakland Oceanic (ODAPS)
Sun 11:15:00 AM 43.9633 -149.3665 95° East 575 662 39,000  Level FlightAware Transoceanic
Sun 11:16:00 AM 43.9503 -149.1554 95° East 575 662 39,000  Level FlightAware Transoceanic
Sun 11:17:00 AM 43.9369 -148.9445 95° East 575 662 39,000  Level FlightAware Transoceanic
Sun 11:18:00 AM 43.9213 -148.7068 95° East 557 641 39,000  Level FlightAware Transoceanic
Sun 11:19:00 AM 43.9068 -148.4916 95° East 557 641 39,000  Level FlightAware Transoceanic
Sun 11:20:00 AM 43.8836 -148.2174 96° East 555 639 39,000  Level FlightAware Transoceanic
Sun 11:21:00 AM 43.8684 -148.0040 96° East 555 639 39,000  Level FlightAware Transoceanic
Sun 11:22:00 AM 43.8527 -147.7907 96° East 555 639 39,000  Level FlightAware Transoceanic
Sun 11:23:00 AM 43.8367 -147.5775 96° East 555 639 39,000  Level FlightAware Transoceanic
Sun 11:24:00 AM 43.8203 -147.3644 96° East 555 639 39,000  Level FlightAware Transoceanic
Sun 11:25:00 AM 43.8035 -147.1515 96° East 555 639 39,000  Level FlightAware Transoceanic
Sun 11:26:00 AM 43.7863 -146.9386 96° East 555 639 39,000  Level FlightAware Transoceanic
Sun 11:27:00 AM 43.7687 -146.7259 97° East 555 639 39,000  Level FlightAware Transoceanic
Sun 11:28:00 AM 43.7506 -146.5134 97° East 555 639 39,000 800 Level FlightAware Transoceanic
Sun 11:28:15 AM 43.7500 -146.5667 97° East 553 636 40,000  Climbing Oakland Oceanic (ODAPS)
Sun 11:29:00 AM 43.7322 -146.3009 97° East 555 639 39,000 -571 Descending FlightAware Transoceanic
Sun 11:30:00 AM 43.7135 -146.0886 97° East 555 639 39,000  Level FlightAware Transoceanic
Sun 11:31:00 AM 43.6943 -145.8764 97° East 555 639 39,000  Level FlightAware Transoceanic
Sun 11:32:00 AM 43.6747 -145.6644 97° East 555 639 39,000  Level FlightAware Transoceanic
Sun 11:33:00 AM 43.6547 -145.4525 97° East 555 639 39,000 500 Level FlightAware Transoceanic
Sun 11:34:00 AM 43.6382 -145.3236 98° East 553 636 40,000 500 Climbing FlightAware Transoceanic
Sun 11:35:00 AM 43.6182 -145.1169 98° East 553 636 40,000  Level FlightAware Transoceanic
Sun 11:36:00 AM 43.5979 -144.9103 98° East 553 636 40,000  Level FlightAware Transoceanic
Sun 11:37:00 AM 43.5772 -144.7039 98° East 553 636 40,000  Level FlightAware Transoceanic
Sun 11:38:00 AM 43.5561 -144.4976 98° East 553 636 40,000  Level FlightAware Transoceanic
Sun 11:39:00 AM 43.5347 -144.2915 98° East 553 636 40,000  Level FlightAware Transoceanic
Sun 11:40:00 AM 43.5129 -144.0855 98° East 553 636 40,000  Level FlightAware Transoceanic
Sun 11:41:00 AM 43.4907 -143.8796 99° East 553 636 40,000  Level FlightAware Transoceanic
Sun 11:42:00 AM 43.4682 -143.6739 99° East 553 636 40,000  Level FlightAware Transoceanic
Sun 11:42:08 AM 43.4667 -143.6833 99° East 546 628 40,000  Level Oakland Oceanic (ODAPS)
Sun 11:43:00 AM 43.4453 -143.4684 99° East 553 636 40,000  Level FlightAware Transoceanic
Sun 11:44:00 AM 43.4220 -143.2630 99° East 553 636 40,000  Level FlightAware Transoceanic
Sun 11:45:00 AM 43.3983 -143.0578 99° East 553 636 40,000  Level FlightAware Transoceanic
Sun 11:46:00 AM 43.3743 -142.8527 99° East 553 636 40,000  Level FlightAware Transoceanic
Sun 11:47:00 AM 43.3499 -142.6478 99° East 553 636 40,000  Level FlightAware Transoceanic
Sun 11:48:00 AM 43.3243 -142.4494 99° East 546 628 40,000  Level FlightAware Transoceanic
Sun 11:49:00 AM 43.2993 -142.2443 100° East 546 628 40,000  Level FlightAware Transoceanic
Sun 11:50:00 AM 43.2739 -142.0394 100° East 546 628 40,000  Level FlightAware Transoceanic
Sun 11:51:00 AM 43.2481 -141.8346 100° East 546 628 40,000  Level FlightAware Transoceanic
Sun 11:52:00 AM 43.2220 -141.6300 100° East 546 628 40,000  Level FlightAware Transoceanic
Sun 11:53:00 AM 43.1955 -141.4256 100° East 546 628 40,000  Level FlightAware Transoceanic
Sun 11:54:00 AM 43.1687 -141.2214 100° East 546 628 40,000  Level FlightAware Transoceanic
Sun 11:55:00 AM 43.1415 -141.0174 100° East 546 628 40,000  Level FlightAware Transoceanic
Sun 11:55:59 AM 43.1167 -140.8833 100° East 547 629 40,000  Level Oakland Oceanic (ODAPS)
Sun 11:56:00 AM 43.1139 -140.8135 101° East 546 628 40,000  Level FlightAware Transoceanic
Sun 11:57:00 AM 43.0860 -140.6099 101° East 546 628 40,000  Level FlightAware Transoceanic
Sun 11:58:00 AM 43.0577 -140.4064 101° East 546 628 40,000  Level FlightAware Transoceanic
Sun 11:59:00 AM 43.0290 -140.2031 101° East 546 628 40,000  Level FlightAware Transoceanic
Sun 12:00:00 PM 43.0000 -140.0000 108° East 546 628 40,000  Level FlightAware Transoceanic
Sun 12:00:23 PM 43.0000 -140.0000 108° East 533 613 40,000  Level Oakland Oceanic (ODAPS)
Sun 12:01:00 PM 42.9543 -139.8134 109° East 546 628 40,000  Level FlightAware Transoceanic
Sun 12:02:00 PM 42.9082 -139.6271 109° East 547 629 40,000  Level FlightAware Transoceanic
Sun 12:03:00 PM 42.8619 -139.4411 109° East 547 629 40,000  Level FlightAware Transoceanic
Sun 12:04:00 PM 42.8153 -139.2554 109° East 547 629 40,000  Level FlightAware Transoceanic
Sun 12:05:00 PM 42.7683 -139.0699 109° East 547 629 40,000  Level FlightAware Transoceanic
Sun 12:06:00 PM 42.7159 -138.8646 109° East 533 613 40,000  Level FlightAware Transoceanic
Sun 12:07:00 PM 42.6675 -138.6764 109° East 533 613 40,000  Level FlightAware Transoceanic
Sun 12:08:00 PM 42.6188 -138.4884 109° East 533 613 40,000  Level FlightAware Transoceanic
Sun 12:09:00 PM 42.5697 -138.3008 110° East 533 613 40,000  Level FlightAware Transoceanic
Sun 12:09:51 PM 42.5333 -138.2000 110° East 529 609 40,000  Level Oakland Oceanic (ODAPS)
Sun 12:10:00 PM 42.5204 -138.1135 110° East 533 613 40,000  Level FlightAware Transoceanic
Sun 12:11:00 PM 42.4707 -137.9265 110° East 533 613 40,000  Level FlightAware Transoceanic
Sun 12:12:00 PM 42.4208 -137.7397 110° East 533 613 40,000  Level FlightAware Transoceanic
Sun 12:13:00 PM 42.3705 -137.5533 110° East 533 613 40,000  Level FlightAware Transoceanic
Sun 12:14:00 PM 42.3200 -137.3671 110° East 533 613 40,000  Level FlightAware Transoceanic
Sun 12:15:00 PM 42.2691 -137.1813 110° East 533 613 40,000  Level FlightAware Transoceanic
Sun 12:16:00 PM 42.2299 -137.0702 110° East 529 609 40,000  Level FlightAware Transoceanic
Sun 12:17:00 PM 42.1782 -136.8829 110° East 529 609 40,000  Level FlightAware Transoceanic
Sun 12:18:00 PM 42.1263 -136.6960 111° Southeast 529 609 40,000  Level FlightAware Transoceanic
Sun 12:19:00 PM 42.0740 -136.5094 111° Southeast 529 609 40,000  Level FlightAware Transoceanic
Sun 12:20:00 PM 42.0215 -136.3230 111° Southeast 529 609 40,000  Level FlightAware Transoceanic
Sun 12:21:00 PM 41.9686 -136.1370 111° Southeast 529 609 40,000  Level FlightAware Transoceanic
Sun 12:22:00 PM 41.9154 -135.9513 111° Southeast 529 609 40,000  Level FlightAware Transoceanic
Sun 12:23:00 PM 41.8620 -135.7659 111° Southeast 529 609 40,000  Level FlightAware Transoceanic
Sun 12:23:44 PM 41.8167 -135.6167 111° Southeast 527 606 40,000  Level Oakland Oceanic (ODAPS)
Sun 12:24:00 PM 41.8082 -135.5809 111° Southeast 529 609 40,000  Level FlightAware Transoceanic
Sun 12:25:00 PM 41.7542 -135.3961 111° Southeast 529 609 40,000  Level FlightAware Transoceanic
Sun 12:26:00 PM 41.6998 -135.2117 112° Southeast 529 609 40,000  Level FlightAware Transoceanic
Sun 12:27:00 PM 41.6452 -135.0275 112° Southeast 529 609 40,000  Level FlightAware Transoceanic
Sun 12:28:00 PM 41.5902 -134.8437 112° Southeast 529 609 40,000  Level FlightAware Transoceanic
Sun 12:29:00 PM 41.5423 -134.6899 112° Southeast 527 606 40,000  Level FlightAware Transoceanic
Sun 12:30:00 PM 41.4866 -134.5056 112° Southeast 527 606 40,000  Level FlightAware Transoceanic
Sun 12:31:00 PM 41.4305 -134.3215 112° Southeast 527 606 40,000  Level FlightAware Transoceanic
Sun 12:32:00 PM 41.3742 -134.1377 112° Southeast 527 606 40,000  Level FlightAware Transoceanic
Sun 12:33:00 PM 41.3176 -133.9543 112° Southeast 527 606 40,000  Level FlightAware Transoceanic
Sun 12:34:00 PM 41.2606 -133.7712 113° Southeast 527 606 40,000  Level FlightAware Transoceanic
Sun 12:35:00 PM 41.2034 -133.5884 113° Southeast 527 606 40,000  Level FlightAware Transoceanic
Sun 12:36:00 PM 41.1459 -133.4059 113° Southeast 527 606 40,000  Level FlightAware Transoceanic
Sun 12:37:00 PM 41.0881 -133.2237 113° Southeast 527 606 40,000  Level FlightAware Transoceanic
Sun 12:37:35 PM 41.0667 -133.1167 113° Southeast 523 602 40,000  Level Oakland Oceanic (ODAPS)
Sun 12:38:00 PM 41.0300 -133.0419 113° Southeast 527 606 40,000  Level FlightAware Transoceanic
Sun 12:39:00 PM 40.9717 -132.8604 113° Southeast 527 606 40,000  Level FlightAware Transoceanic
Sun 12:40:00 PM 40.9131 -132.6792 113° Southeast 527 606 40,000  Level FlightAware Transoceanic
Sun 12:41:00 PM 40.8541 -132.4983 113° Southeast 527 606 40,000  Level FlightAware Transoceanic
Sun 12:42:00 PM 40.7949 -132.3177 113° Southeast 527 606 40,000  Level FlightAware Transoceanic
Sun 12:43:00 PM 40.7354 -132.1375 114° Southeast 527 606 40,000  Level FlightAware Transoceanic
Sun 12:44:00 PM 40.6618 -131.8928 114° Southeast 523 602 40,000  Level FlightAware Transoceanic
Sun 12:45:00 PM 40.6029 -131.7192 114° Southeast 523 602 40,000  Level FlightAware Transoceanic
Sun 12:46:00 PM 40.5438 -131.5459 114° Southeast 523 602 40,000  Level FlightAware Transoceanic
Sun 12:47:00 PM 40.4844 -131.3729 114° Southeast 523 602 40,000  Level FlightAware Transoceanic
Sun 12:48:00 PM 40.4247 -131.2002 114° Southeast 523 602 40,000  Level FlightAware Transoceanic
Sun 12:49:00 PM 40.3648 -131.0279 115° Southeast 523 602 40,000  Level FlightAware Transoceanic
Sun 12:50:00 PM 40.3046 -130.8558 115° Southeast 523 602 40,000  Level FlightAware Transoceanic
Sun 12:51:00 PM 40.2442 -130.6840 115° Southeast 523 602 40,000  Level FlightAware Transoceanic
Sun 12:51:28 PM 40.2500 -130.7167 114° Southeast 519 597 40,000  Level Oakland Oceanic (ODAPS)
Sun 12:52:00 PM 40.1836 -130.5125 115° Southeast 523 602 40,000  Level FlightAware Transoceanic
Sun 12:53:00 PM 40.1226 -130.3414 115° Southeast 523 602 40,000  Level FlightAware Transoceanic
Sun 12:54:00 PM 40.0614 -130.1705 115° Southeast 523 602 40,000  Level FlightAware Transoceanic
Sun 12:55:00 PM 40.0000 -130.0000 122° Southeast 523 602 40,000  Level FlightAware Transoceanic
Sun 12:55:41 PM 40.0000 -130.0000 122° Southeast 518 596 40,000  Level Oakland Oceanic (ODAPS)
Sun 12:56:00 PM 39.9252 -129.8469 123° Southeast 523 602 40,000  Level FlightAware Transoceanic
Sun 12:57:00 PM 39.8502 -129.6941 123° Southeast 519 597 40,000  Level FlightAware Transoceanic
Sun 12:58:00 PM 39.7750 -129.5416 123° Southeast 519 597 40,000  Level FlightAware Transoceanic
Sun 12:59:00 PM 39.6996 -129.3895 123° Southeast 519 597 40,000  Level FlightAware Transoceanic
Sun 01:00:00 PM 39.6239 -129.2377 123° Southeast 519 597 40,000  Level FlightAware Transoceanic
Sun 01:01:00 PM 39.5481 -129.0862 123° Southeast 519 597 40,000  Level FlightAware Transoceanic
Sun 01:02:00 PM 39.5242 -129.0384 123° Southeast 518 596 40,000  Level FlightAware Transoceanic
Sun 01:03:00 PM 39.4441 -128.8795 123° Southeast 518 596 40,000  Level FlightAware Transoceanic
Sun 01:04:00 PM 39.3638 -128.7208 123° Southeast 518 596 40,000  Level FlightAware Transoceanic
Sun 01:05:00 PM 39.2833 -128.5626 123° Southeast 518 596 40,000  Level FlightAware Transoceanic
Sun 01:05:16 PM 39.2500 -128.4833 124° Southeast 518 596 40,000  Level Oakland Oceanic (ODAPS)
Sun 01:06:00 PM 39.2026 -128.4047 123° Southeast 518 596 40,000  Level FlightAware Transoceanic
Sun 01:07:00 PM 39.1216 -128.2472 124° Southeast 518 596 40,000  Level FlightAware Transoceanic
Sun 01:08:00 PM 39.0405 -128.0900 124° Southeast 518 596 40,000  Level FlightAware Transoceanic
Sun 01:09:00 PM 38.9591 -127.9332 124° Southeast 518 596 40,000  Level FlightAware Transoceanic
Sun 01:10:00 PM 38.8776 -127.7768 124° Southeast 518 596 40,000  Level FlightAware Transoceanic
Sun 01:11:00 PM 38.7822 -127.5894 124° Southeast 518 596 40,000  Level FlightAware Transoceanic
Sun 01:12:00 PM 38.7036 -127.4416 124° Southeast 518 596 40,000  Level FlightAware Transoceanic
Sun 01:12:21 PM 38.6881 -127.4133 111° Southeast 514 592 40,000  Level Oakland Center
Sun 01:13:00 PM 38.6248 -127.2941 124° Southeast 518 596 40,000  Level FlightAware Transoceanic
Sun 01:14:00 PM 38.5458 -127.1469 125° Southeast 518 596 40,000  Level FlightAware Transoceanic
Sun 01:15:00 PM 38.4667 -127.0000 111° Southeast 518 596 40,000  Level FlightAware Transoceanic
Sun 01:16:00 PM 38.4158 -126.8324 111° Southeast 518 596 40,000  Level FlightAware Transoceanic
Sun 01:17:00 PM 38.3646 -126.6650 111° Southeast 518 596 40,000  Level FlightAware Transoceanic
Sun 01:18:01 PM 38.3040 -126.5110 111° Southeast 500 575 40,000  Level FlightAware ADS-B
Sun 01:18:34 PM 38.2750 -126.4340 116° Southeast 500 575 40,000  Level FlightAware ADS-B
Sun 01:19:10 PM 38.2450 -126.3530 115° Southeast 500 575 40,000  Level FlightAware ADS-B
Sun 01:19:45 PM 38.2000 -126.2330 115° Southeast 505 581 40,000  Level FlightAware ADS-B
Sun 01:20:18 PM 38.1700 -126.1500 115° Southeast 504 580 40,000  Level FlightAware ADS-B
Sun 01:20:53 PM 38.1320 -126.0500 116° Southeast 505 581 40,000  Level FlightAware ADS-B
Sun 01:21:33 PM 38.0920 -125.9440 116° Southeast 505 581 40,000  Level FlightAware ADS-B
Sun 01:22:05 PM 38.0610 -125.8600 115° Southeast 503 579 40,000  Level FlightAware ADS-B
Sun 01:22:39 PM 38.0270 -125.7700 116° Southeast 505 581 40,000  Level FlightAware ADS-B
Sun 01:23:13 PM 37.9920 -125.6770 116° Southeast 503 579 40,000  Level FlightAware ADS-B
Sun 01:23:52 PM 37.9550 -125.5810 116° Southeast 495 570 40,000  Level FlightAware ADS-B
Sun 01:24:33 PM 37.9140 -125.4720 115° Southeast 490 564 40,000  Level FlightAware ADS-B
Sun 01:25:07 PM 37.8800 -125.3830 116° Southeast 489 563 40,000  Level FlightAware ADS-B
Sun 01:25:45 PM 37.8420 -125.2830 116° Southeast 487 560 40,000  Level FlightAware ADS-B
Sun 01:26:21 PM 37.8070 -125.1910 116° Southeast 487 560 40,000  Level FlightAware ADS-B
Sun 01:27:01 PM 37.7680 -125.0880 116° Southeast 491 565 40,000 243 Level FlightAware ADS-B
Sun 01:27:35 PM 37.7350 -125.0010 116° Southeast 491 565 40,300 794 Climbing FlightAware ADS-B
Sun 01:28:09 PM 37.7020 -124.9150 116° Southeast 486 559 40,900 600 Climbing FlightAware ADS-B
Sun 01:28:45 PM 37.6660 -124.8220 116° Southeast 483 556 41,000 83 Climbing FlightAware ADS-B
Sun 01:29:21 PM 37.6310 -124.7330 116° Southeast 484 557 41,000  Level FlightAware ADS-B
Sun 01:29:57 PM 37.5950 -124.6400 116° Southeast 483 556 41,000  Level FlightAware ADS-B
Sun 01:30:29 PM 37.5640 -124.5590 116° Southeast 482 555 41,000  Level FlightAware ADS-B
Sun 01:31:05 PM 37.5290 -124.4690 116° Southeast 479 551 41,000  Level FlightAware ADS-B
Sun 01:31:41 PM 37.4930 -124.3790 117° Southeast 478 550 41,000  Level FlightAware ADS-B
Sun 01:32:13 PM 37.4620 -124.2990 116° Southeast 475 547 41,000  Level FlightAware ADS-B
Sun 01:32:49 PM 37.4270 -124.2090 116° Southeast 476 548 41,000  Level FlightAware ADS-B
Sun 01:33:25 PM 37.3920 -124.1220 117° Southeast 478 550 41,000  Level FlightAware ADS-B
Sun 01:34:01 PM 37.3570 -124.0330 116° Southeast 479 551 41,000  Level FlightAware ADS-B
Sun 01:34:37 PM 37.3210 -123.9430 117° Southeast 481 554 41,000  Level FlightAware ADS-B
Sun 01:35:09 PM 37.2890 -123.8610 116° Southeast 484 557 41,000  Level FlightAware ADS-B
Sun 01:35:45 PM 37.2530 -123.7700 116° Southeast 485 558 41,000  Level FlightAware ADS-B
Sun 01:36:21 PM 37.2180 -123.6820 117° Southeast 487 560 41,000  Level FlightAware ADS-B
Sun 01:36:56 PM 37.1820 -123.5930 117° Southeast 488 562 41,000  Level FlightAware ADS-B
Sun 01:37:27 PM 37.1500 -123.5150 117° Southeast 488 562 41,000  Level FlightAware ADS-B
Sun 01:38:05 PM 37.1110 -123.4170 116° Southeast 487 560 41,000  Level FlightAware ADS-B
Sun 01:38:41 PM 37.0750 -123.3270 117° Southeast 487 560 41,000  Level FlightAware ADS-B
Sun 01:39:15 PM 37.0400 -123.2420 117° Southeast 487 560 41,000  Level FlightAware ADS-B
Sun 01:39:52 PM 37.0017 -123.1470 117° Southeast 487 560 41,000  Level FlightAware ADS-B
Sun 01:40:23 PM 36.9700 -123.0700 117° Southeast 494 568 41,000  Level FlightAware ADS-B
Sun 01:41:09 PM 36.9230 -122.9540 117° Southeast 492 566 41,000  Level FlightAware ADS-B
Sun 01:41:41 PM 36.8890 -122.8710 117° Southeast 489 563 41,000  Level FlightAware ADS-B
Sun 01:42:17 PM 36.8530 -122.7830 117° Southeast 485 558 41,000  Level FlightAware ADS-B
Sun 01:42:53 PM 36.8150 -122.6920 118° Southeast 485 558 41,000  Level FlightAware ADS-B
Sun 01:43:27 PM 36.7800 -122.6080 117° Southeast 483 556 41,000  Level FlightAware ADS-B
Sun 01:44:01 PM 36.7460 -122.5250 117° Southeast 481 554 41,000  Level FlightAware ADS-B
Sun 01:44:33 PM 36.7140 -122.4470 117° Southeast 479 551 41,000  Level FlightAware ADS-B
Sun 01:45:12 PM 36.6740 -122.3520 118° Southeast 467 537 41,000  Level FlightAware ADS-B
Sun 01:45:39 PM 36.6474 -122.2880 117° Southeast 462 532 41,000  Level FlightAware ADS-B
Sun 01:46:09 PM 36.6174 -122.2170 118° Southeast 458 527 41,000  Level FlightAware ADS-B
Sun 01:46:47 PM 36.5812 -122.1300 117° Southeast 454 522 41,000  Level FlightAware ADS-B
Sun 01:47:30 PM 36.5400 -122.0320 118° Southeast 449 517 41,000  Level FlightAware ADS-B
Sun 01:48:07 PM 36.5040 -121.9470 118° Southeast 450 518 41,000  Level FlightAware ADS-B
Sun 01:48:48 PM 36.4650 -121.8540 118° Southeast 449 517 41,000  Level FlightAware ADS-B
Sun 01:49:23 PM 36.4299 -121.7720 118° Southeast 450 518 41,000  Level FlightAware ADS-B
Sun 01:50:00 PM 36.3940 -121.6870 118° Southeast 449 517 41,000  Level FlightAware ADS-B
Sun 01:50:36 PM 36.3610 -121.6100 118° Southeast 452 520 41,000  Level FlightAware ADS-B
Sun 01:51:08 PM 36.3290 -121.5360 118° Southeast 452 520 41,000  Level FlightAware ADS-B
Sun 01:51:44 PM 36.2930 -121.4500 117° Southeast 449 517 41,000  Level FlightAware ADS-B
Sun 01:52:20 PM 36.2600 -121.3750 119° Southeast 446 513 41,000  Level FlightAware ADS-B
Sun 01:52:52 PM 36.2270 -121.2990 118° Southeast 446 513 41,000  Level FlightAware ADS-B
Sun 01:53:30 PM 36.1910 -121.2150 118° Southeast 446 513 41,000  Level FlightAware ADS-B
Sun 01:54:00 PM 36.1630 -121.1490 118° Southeast 445 512 41,000  Level FlightAware ADS-B
Sun 01:54:18 PM 36.1500 -121.1040 110° East 449 517 41,000  Level FlightAware ADS-B
Sun 01:54:50 PM 36.1430 -121.0210 96° East 455 524 41,000  Level FlightAware ADS-B
Sun 01:55:28 PM 36.1420 -120.9200 91° East 458 527 41,000  Level FlightAware ADS-B
Sun 01:56:04 PM 36.1420 -120.8250 90° East 461 531 41,000  Level FlightAware ADS-B
Sun 01:56:37 PM 36.1420 -120.7410 90° East 461 531 41,000  Level FlightAware ADS-B
Sun 01:57:14 PM 36.1430 -120.6410 89° East 460 529 41,000  Level FlightAware ADS-B
Sun 01:57:46 PM 36.1430 -120.5590 90° East 461 531 41,000  Level FlightAware ADS-B
Sun 01:58:24 PM 36.1340 -120.4610 96° East 451 519 41,000  Level FlightAware ADS-B
Sun 01:58:50 PM 36.1070 -120.4060 121° Southeast 439 505 41,000  Level FlightAware ADS-B
Sun 01:59:05 PM 36.0828 -120.3810 140° Southeast 445 512 41,000  Level FlightAware ADS-B
Sun 02:00:00 PM 35.9950 -120.2990 143° Southeast 436 502 41,000  Level FlightAware ADS-B
Sun 02:00:35 PM 35.9380 -120.2460 143° Southeast 435 501 41,000  Level FlightAware ADS-B
Sun 02:01:10 PM 35.8820 -120.1940 143° Southeast 434 499 41,000  Level FlightAware ADS-B
Sun 02:01:43 PM 35.8290 -120.1460 144° Southeast 435 501 41,000  Level FlightAware ADS-B
Sun 02:02:22 PM 35.7670 -120.0880 143° Southeast 435 501 41,000  Level FlightAware ADS-B
Sun 02:02:53 PM 35.7160 -120.0420 144° Southeast 434 499 41,000  Level FlightAware ADS-B
Sun 02:03:30 PM 35.6570 -119.9880 143° Southeast 432 497 41,000  Level FlightAware ADS-B
Sun 02:04:04 PM 35.6020 -119.9390 144° Southeast 428 493 41,000 -261 Level FlightAware ADS-B
Sun 02:04:39 PM 35.5480 -119.8930 145° Southeast 419 482 40,700 -1,462 Descending FlightAware ADS-B
Sun 02:05:22 PM 35.4760 -119.8310 145° Southeast 426 490 39,100 -1,974 Descending FlightAware ADS-B
Sun 02:05:55 PM 35.4230 -119.7850 145° Southeast 406 467 38,200 -2,143 Descending FlightAware ADS-B
Sun 02:06:32 PM 35.3670 -119.7400 147° Southeast 400 460 36,600 -3,148 Descending FlightAware ADS-B
Sun 02:06:56 PM 35.3270 -119.7220 160° South 405 466 35,000 -2,793 Descending FlightAware ADS-B
Sun 02:07:30 PM 35.2620 -119.7230 181° South 399 459 33,900 -1,750 Descending FlightAware ADS-B
Sun 02:08:08 PM 35.1970 -119.7370 190° South 391 450 32,900 -1,747 Descending FlightAware ADS-B
Sun 02:08:49 PM 35.1290 -119.7460 186° South 385 443 31,600 -2,000 Descending FlightAware ADS-B
Sun 02:08:59 PM 35.1050 -119.7380 165° South 388 447 31,200 -2,000 Descending FlightAware ADS-B
Sun 02:09:19 PM 35.0750 -119.7110 144° Southeast 395 455 30,600 -1,607 Descending FlightAware ADS-B
Sun 02:09:55 PM 35.0330 -119.6630 137° Southeast 388 447 29,700 -1,636 Descending FlightAware ADS-B
Sun 02:10:25 PM 34.9900 -119.6120 136° Southeast 386 444 28,800 -1,630 Descending FlightAware ADS-B
Sun 02:11:16 PM 34.9220 -119.5330 136° Southeast 381 438 27,500 -1,341 Descending FlightAware ADS-B
Sun 02:11:50 PM 34.8900 -119.4950 136° Southeast 384 442 26,900 -1,371 Descending FlightAware ADS-B
Sun 02:12:26 PM 34.8330 -119.4300 137° Southeast 379 436 25,900 -1,579 Descending FlightAware ADS-B
Sun 02:13:06 PM 34.7850 -119.3740 136° Southeast 374 430 24,900 -1,520 Descending FlightAware ADS-B
Sun 02:13:41 PM 34.7440 -119.3270 137° Southeast 364 419 24,000 -1,569 Descending FlightAware ADS-B
Sun 02:14:11 PM 34.7070 -119.2840 136° Southeast 357 411 23,200 -1,680 Descending FlightAware ADS-B
Sun 02:14:56 PM 34.6470 -119.2140 136° Southeast 356 410 21,900 -1,630 Descending FlightAware ADS-B
Sun 02:15:32 PM 34.6060 -119.1670 137° Southeast 350 403 21,000 -1,500 Descending FlightAware ADS-B
Sun 02:16:08 PM 34.5620 -119.1170 137° Southeast 343 395 20,100 -1,478 Descending FlightAware ADS-B
Sun 02:16:41 PM 34.5270 -119.0760 136° Southeast 339 390 19,300 -1,543 Descending FlightAware ADS-B
Sun 02:17:18 PM 34.4840 -119.0270 137° Southeast 333 383 18,300 -1,477 Descending FlightAware ADS-B
Sun 02:17:46 PM 34.4560 -118.9950 137° Southeast 333 383 17,700 -1,500 Descending FlightAware ADS-B
Sun 02:18:26 PM 34.4080 -118.9400 137° Southeast 329 379 16,600 -1,553 Descending FlightAware ADS-B
Sun 02:19:11 PM 34.3610 -118.8900 139° Southeast 316 364 15,500 -1,477 Descending FlightAware ADS-B
Sun 02:19:31 PM 34.3310 -118.8720 154° Southeast 310 357 15,000 -1,556 Descending FlightAware ADS-B
Sun 02:20:05 PM 34.2820 -118.8540 163° South 307 353 14,100 -1,457 Descending FlightAware ADS-B
Sun 02:20:41 PM 34.2350 -118.8360 162° South 305 351 13,300 -1,477 Descending FlightAware ADS-B
Sun 02:21:10 PM 34.1920 -118.8210 164° South 301 346 12,500 -1,286 Descending FlightAware ADS-B
Sun 02:21:51 PM 34.1400 -118.8020 163° South 304 350 11,800 -947 Descending FlightAware ADS-B
Sun 02:22:26 PM 34.0960 -118.7850 162° South 303 349 11,300 -689 Descending FlightAware ADS-B
Sun 02:22:52 PM 34.0630 -118.7710 161° South 280 322 11,100 -585 Descending FlightAware ADS-B
Sun 02:23:07 PM 34.0460 -118.7530 139° Southeast 283 326 10,900 -1,000 Descending FlightAware ADS-B
Sun 02:23:22 PM 34.0360 -118.7300 118° Southeast 286 329 10,600 -873 Descending FlightAware ADS-B
Sun 02:24:02 PM 34.0300 -118.6690 97° East 279 321 10,100 -514 Descending FlightAware ADS-B
Sun 02:24:32 PM 34.0260 -118.6240 96° East 254 292 10,000 -407 Descending FlightAware ADS-B
Sun 02:25:01 PM 34.0220 -118.5840 97° East 241 277 9,700 -818 Descending FlightAware ADS-B
Sun 02:25:16 PM 34.0200 -118.5620 96° East 239 275 9,400 -1,000 Descending FlightAware ADS-B
Sun 02:25:37 PM 34.0180 -118.5350 95° East 239 275 9,100 -1,067 Descending FlightAware ADS-B
Sun 02:26:01 PM 34.0150 -118.5060 97° East 235 270 8,600 -1,350 Descending FlightAware ADS-B
Sun 02:26:17 PM 34.0130 -118.4820 96° East 233 268 8,200 -1,500 Descending FlightAware ADS-B
Sun 02:26:37 PM 34.0110 -118.4570 96° East 233 268 7,700 -1,650 Descending FlightAware ADS-B
Sun 02:26:57 PM 34.0120 -118.4330 87° East 233 268 7,100 -1,800 Descending FlightAware ADS-B
Sun 02:27:07 PM 34.0140 -118.4160 82° East 232 267 6,800 -1,800 Descending FlightAware ADS-B
Sun 02:27:27 PM 34.0190 -118.3920 76° East 229 264 6,200 -1,950 Descending FlightAware ADS-B
Sun 02:27:47 PM 34.0230 -118.3710 77° East 227 261 5,500 -2,267 Descending FlightAware ADS-B
Sun 02:28:12 PM 34.0280 -118.3350 80° East 225 259 4,500 -2,045 Descending FlightAware ADS-B
Sun 02:28:31 PM 34.0310 -118.3170 79° East 224 258 4,000 -1,467 Descending FlightAware ADS-B
Sun 02:28:57 PM 34.0350 -118.2850 81° East 216 249 3,400 -1,304 Descending FlightAware ADS-B
Sun 02:29:17 PM 34.0380 -118.2630 81° East 216 249 3,000 -1,029 Descending FlightAware ADS-B
Sun 02:29:32 PM 34.0410 -118.2400 81° East 212 244 2,800 -545 Descending FlightAware ADS-B
Sun 02:30:01 PM 34.0440 -118.2080 84° East 187 215 2,600 -207 Descending FlightAware ADS-B
Sun 02:30:30 PM 34.0320 -118.1840 121° Southeast 187 215 2,600  Level FlightAware ADS-B
Sun 02:30:42 PM 34.0210 -118.1810 167° South 189 217 2,600 -125 Level FlightAware ADS-B
Sun 02:31:18 PM 33.9900 -118.1880 191° South 196 226 2,500 -250 Descending FlightAware ADS-B
Sun 02:31:30 PM 33.9830 -118.1980 230° Southwest 195 224 2,400 -383 Descending FlightAware ADS-B
Sun 02:32:05 PM 33.9700 -118.2260 241° Southwest 183 211 2,200 -207 Descending FlightAware ADS-B
Sun 02:32:28 PM 33.9670 -118.2530 262° West 189 217 2,200  Level FlightAware ADS-B
Sun 02:32:48 PM 33.9650 -118.2730 263° West 184 212 2,200 -500 Level FlightAware ADS-B
Sun 02:33:16 PM 33.9630 -118.2990 265° West 165 190 1,800 -875 Descending FlightAware ADS-B
Sun 02:33:36 PM 33.9610 -118.3180 263° West 160 184 1,500 -818 Descending FlightAware ADS-B
Sun 02:34:00 PM 33.9580 -118.3390 260° West 145 167 1,200 -682 Descending FlightAware ADS-B
Sun 02:34:20 PM 33.9570 -118.3540 265° West 141 162 1,000 -750 Descending FlightAware ADS-B
Sun 02:34:40 PM 33.9550 -118.3700 261° West 140 161 700 -882 Descending FlightAware ADS-B
Sun 02:34:54 PM 33.9540 -118.3810 264° West 140 161 500 -444 Descending FlightAware ADS-B
Sun 02:35:34 PM 33.9510 -118.4090 263° West 139 160 300 -300 Descending FlightAware ADS-B

Login

Don't have an account? Register now (free) for customized features, flight alerts, and more!